This is the latest recevied weather packets stored in our database for station/object TA1FM. If no packets are shown the sender has not sent any weather packets the latest 10 day(s).
| Time | Temp. | Humidity | Pressure | Rain* | Wind** | Luminosity | Snow |
|---|---|---|---|---|---|---|---|
| 1778246935 | 15.56° C | 41% | 914 hPa | - | - | - | - |
| 1778246039 | 15.56° C | 41% | 914.2 hPa | - | - | - | - |
| 1778245135 | 16.11° C | 41% | 914.2 hPa | - | - | - | - |
| 1778244235 | 16.11° C | 40% | 914.4 hPa | - | - | - | - |
| 1778243334 | 16.11° C | 41% | 914.6 hPa | - | - | - | - |
| 1778242434 | 16.11° C | 42% | 914.8 hPa | - | - | - | - |
| 1778241534 | 16.11° C | 42% | 914.8 hPa | - | - | - | - |
| 1778240634 | 16.67° C | 38% | 914.8 hPa | - | - | - | - |
| 1778239734 | 16.67° C | 37% | 915 hPa | - | - | - | - |
| 1778238834 | 16.67° C | 37% | 915 hPa | - | - | - | - |
| 1778237934 | 17.22° C | 37% | 914.8 hPa | - | - | - | - |
| 1778237033 | 17.22° C | 35% | 915 hPa | - | - | - | - |
| 1778236133 | 17.78° C | 33% | 914.6 hPa | - | - | - | - |
| 1778235233 | 18.33° C | 33% | 914.9 hPa | - | - | - | - |
| 1778234333 | 18.33° C | 30% | 914.6 hPa | - | - | - | - |
| 1778233433 | 17.22° C | 31% | 912.9 hPa | - | - | - | - |
| 1778232533 | 18.89° C | 34% | 914.7 hPa | - | - | - | - |
| 1778231634 | 18.33° C | 33% | 914.8 hPa | - | - | - | - |
| 1778230732 | 18.33° C | 32% | 914.6 hPa | - | - | - | - |
| 1778229832 | 18.33° C | 34% | 914.5 hPa | - | - | - | - |
| 1778228932 | 18.33° C | 34% | 914.5 hPa | - | - | - | - |
| 1778228032 | 18.33° C | 33% | 914.5 hPa | - | - | - | - |
| 1778227132 | 18.33° C | 32% | 914.2 hPa | - | - | - | - |
| 1778226409 | 18.33° C | 31% | 914 hPa | - | - | - | - |
| 1778226232 | 18.33° C | 31% | 914 hPa | - | - | - | - |
* Rain since midnight (hover to see other rain measurements)
** Current wind speed in m/s (hover to see current wind gust speed)